Time;durP1;ratioP1;P1;durP2;ratioP2;P2;SDS_P1;SDS_P2;PMS_P1;PMS_P2;Temp;Humidity;BMP_temperature;BMP_pressure;BME280_temperature;BME280_humidity;BME280_pressure;Samples;Min_cycle;Max_cycle;Signal;HPM_P1;HPM_P2
2023/12/16 00:02:13;;;;;;;9.10;7.90;;;;;;;10.45;63.38;99655.72;5030457;28;20211;-70
2023/12/16 00:04:40;;;;;;;11.53;8.80;;;;;;;10.36;63.56;99650.16;5041170;28;21198;-71
2023/12/16 00:07:06;;;;;;;10.13;8.60;;;;;;;10.33;63.45;99663.47;5039433;28;20321;-72
2023/12/16 00:09:31;;;;;;;9.57;8.37;;;;;;;10.36;63.25;99673.75;5031167;28;20525;-72
2023/12/16 00:11:57;;;;;;;10.80;8.23;;;;;;;10.41;63.26;99679.59;5042506;28;20205;-70
2023/12/16 00:14:23;;;;;;;10.93;8.33;;;;;;;10.38;63.04;99685.88;5045301;28;20194;-71
2023/12/16 00:16:48;;;;;;;22.60;9.87;;;;;;;10.17;63.80;99682.72;5038958;28;20281;-70
2023/12/16 00:19:14;;;;;;;13.20;9.37;;;;;;;10.13;64.04;99675.94;5031481;28;20209;-70
2023/12/16 00:21:39;;;;;;;10.77;8.60;;;;;;;10.18;64.21;99676.53;5042312;28;20258;-71
2023/12/16 00:24:08;;;;;;;13.73;8.53;;;;;;;10.18;63.76;99667.81;5040904;28;20282;-72
2023/12/16 00:26:34;;;;;;;9.77;8.57;;;;;;;10.15;64.17;99664.44;5037048;28;20240;-72
2023/12/16 00:28:59;;;;;;;11.70;8.90;;;;;;;10.20;63.99;99671.19;5035351;28;20464;-69
2023/12/16 00:31:24;;;;;;;10.50;8.40;;;;;;;10.19;64.09;99670.38;5040722;28;20199;-71
2023/12/16 00:33:50;;;;;;;10.07;7.97;;;;;;;10.20;63.99;99672.06;5041025;28;20194;-70
2023/12/16 00:36:16;;;;;;;9.97;7.93;;;;;;;10.17;64.00;99656.50;5043416;28;20192;-71
2023/12/16 00:38:41;;;;;;;9.60;8.07;;;;;;;10.18;63.75;99662.56;5036877;28;20511;-71
2023/12/16 00:41:07;;;;;;;13.00;8.77;;;;;;;10.17;64.00;99666.13;5033537;28;20202;-72
2023/12/16 00:43:33;;;;;;;10.57;7.67;;;;;;;10.01;64.00;99666.16;5040134;28;20229;-72
2023/12/16 00:45:58;;;;;;;10.53;8.53;;;;;;;9.99;64.18;99674.13;5033675;28;20514;-71
2023/12/16 00:48:24;;;;;;;12.77;8.20;;;;;;;10.11;64.33;99670.81;5032336;28;20199;-71
2023/12/16 00:50:49;;;;;;;12.10;8.30;;;;;;;10.20;63.67;99677.28;5041051;28;20262;-70
2023/12/16 00:53:14;;;;;;;12.63;8.80;;;;;;;10.19;63.61;99678.22;5037900;28;20219;-70
2023/12/16 00:55:40;;;;;;;14.27;8.40;;;;;;;10.19;63.45;99685.22;5024988;28;20197;-70
2023/12/16 00:58:06;;;;;;;10.73;8.10;;;;;;;10.23;63.34;99681.50;5034186;28;20258;-72
2023/12/16 01:00:32;;;;;;;14.93;8.80;;;;;;;10.18;63.11;99689.63;5028245;28;20212;-72
2023/12/16 01:02:58;;;;;;;10.37;8.30;;;;;;;10.20;63.31;99686.91;5025055;28;20451;-71
2023/12/16 01:05:24;;;;;;;10.00;8.37;;;;;;;10.26;63.15;99687.41;5037997;28;20539;-71
2023/12/16 01:07:50;;;;;;;11.50;8.50;;;;;;;10.30;63.15;99699.41;5027380;28;20472;-71
2023/12/16 01:10:15;;;;;;;8.43;7.50;;;;;;;10.31;63.06;99705.47;5024483;28;20419;-71
2023/12/16 01:12:41;;;;;;;12.83;8.80;;;;;;;10.30;62.93;99709.91;5025775;28;20287;-70
2023/12/16 01:15:06;;;;;;;9.13;7.87;;;;;;;10.32;62.82;99714.22;5019658;28;20586;-71
2023/12/16 01:17:33;;;;;;;11.20;8.33;;;;;;;10.30;62.60;99717.75;5028586;28;20595;-71
2023/12/16 01:19:59;;;;;;;11.83;8.17;;;;;;;10.30;62.63;99715.13;5017111;28;20287;-70
2023/12/16 01:22:25;;;;;;;10.20;8.50;;;;;;;10.26;62.77;99718.03;5030110;28;20550;-71
2023/12/16 01:24:50;;;;;;;10.90;7.80;;;;;;;10.24;62.89;99715.47;5022640;28;20277;-72
2023/12/16 01:27:16;;;;;;;20.50;8.30;;;;;;;10.28;62.87;99713.50;5033022;28;20195;-71
2023/12/16 01:29:41;;;;;;;10.50;7.73;;;;;;;10.28;62.81;99713.50;5025039;28;20206;-71
2023/12/16 01:32:07;;;;;;;11.33;8.10;;;;;;;10.29;63.12;99713.44;5020493;28;20558;-70
2023/12/16 01:34:32;;;;;;;10.30;7.73;;;;;;;10.27;62.87;99717.09;5009581;28;20196;-71
2023/12/16 01:36:58;;;;;;;7.80;7.00;;;;;;;10.26;63.01;99723.28;5030965;28;20236;-71
2023/12/16 01:39:24;;;;;;;11.47;7.63;;;;;;;10.32;63.03;99717.66;5031121;28;20188;-71
2023/12/16 01:41:50;;;;;;;9.90;7.23;;;;;;;10.20;62.90;99708.75;5021154;28;20281;-70
2023/12/16 01:44:15;;;;;;;8.03;6.90;;;;;;;10.15;62.97;99713.41;5030717;28;20429;-71
2023/12/16 01:46:41;;;;;;;16.50;7.70;;;;;;;10.23;63.22;99708.53;5017873;28;20595;-71
2023/12/16 01:49:07;;;;;;;10.13;7.70;;;;;;;10.21;63.19;99696.47;5037413;28;20206;-70
2023/12/16 01:51:32;;;;;;;10.53;7.63;;;;;;;10.21;63.02;99694.69;5022317;28;20213;-71
2023/12/16 01:53:59;;;;;;;12.17;7.97;;;;;;;10.22;62.99;99695.53;5033003;28;20195;-70
2023/12/16 01:56:26;;;;;;;9.17;7.20;;;;;;;10.20;62.96;99697.41;5023455;28;20195;-71
2023/12/16 01:58:51;;;;;;;8.67;7.50;;;;;;;10.20;62.91;99698.25;5025605;28;20430;-71
2023/12/16 02:01:17;;;;;;;10.73;7.77;;;;;;;10.10;63.38;99704.94;5046635;28;20463;-71
2023/12/16 02:03:44;;;;;;;9.40;8.10;;;;;;;10.11;63.34;99704.00;5039294;28;20283;-69
2023/12/16 02:06:09;;;;;;;8.80;7.53;;;;;;;10.13;63.08;99696.91;5043456;28;20253;-70
2023/12/16 02:08:36;;;;;;;11.17;8.30;;;;;;;10.17;63.10;99702.81;5038739;28;20422;-71
2023/12/16 02:11:01;;;;;;;9.50;7.50;;;;;;;10.15;63.03;99713.41;5033438;28;20198;-69
2023/12/16 02:13:27;;;;;;;11.83;7.43;;;;;;;10.13;63.03;99707.41;5044215;28;20430;-72
2023/12/16 02:15:52;;;;;;;12.53;8.63;;;;;;;10.04;63.34;99721.03;5037841;28;20250;-71
2023/12/16 02:18:17;;;;;;;10.53;7.77;;;;;;;10.09;63.63;99724.22;5033524;28;20640;-71
2023/12/16 02:20:43;;;;;;;8.60;7.70;;;;;;;10.05;63.60;99723.56;5028851;28;20275;-71
2023/12/16 02:23:16;;;;;;;12.90;8.53;;;;;;;10.08;63.44;99705.03;5045449;28;20211;-71
2023/12/16 02:25:42;;;;;;;11.27;7.57;;;;;;;10.15;63.71;99711.59;5026038;28;20234;-71
2023/12/16 02:28:08;;;;;;;10.30;7.80;;;;;;;10.16;63.64;99720.31;5030005;28;20445;-71
2023/12/16 02:30:34;;;;;;;10.40;8.40;;;;;;;10.14;63.43;99724.81;5032312;28;20930;-71
2023/12/16 02:32:59;;;;;;;11.07;8.23;;;;;;;10.18;63.25;99730.72;5035915;28;20967;-71
2023/12/16 02:35:25;;;;;;;12.50;8.40;;;;;;;10.10;63.49;99739.00;5031930;28;20191;-71
2023/12/16 02:37:50;;;;;;;9.60;8.50;;;;;;;10.15;63.74;99737.81;5030640;28;20203;-71
2023/12/16 02:40:16;;;;;;;10.60;8.40;;;;;;;10.15;63.54;99735.19;5040026;28;20237;-72
2023/12/16 02:42:41;;;;;;;10.43;8.67;;;;;;;10.18;63.37;99742.06;5041208;28;20302;-72
2023/12/16 02:45:07;;;;;;;9.23;7.93;;;;;;;10.17;63.23;99743.00;5036482;28;20191;-70
2023/12/16 02:47:32;;;;;;;11.80;8.53;;;;;;;10.14;63.22;99740.53;5031375;28;20192;-72
2023/12/16 02:49:58;;;;;;;10.60;8.90;;;;;;;10.20;63.33;99736.72;5038318;28;20187;-69
2023/12/16 02:52:23;;;;;;;9.17;7.87;;;;;;;10.17;63.27;99736.88;5038164;28;20217;-71
2023/12/16 02:54:48;;;;;;;10.83;8.00;;;;;;;10.14;62.98;99730.88;5028285;28;20245;-69
2023/12/16 02:57:14;;;;;;;11.10;8.07;;;;;;;10.14;63.43;99730.06;5032721;28;20199;-71
2023/12/16 02:59:39;;;;;;;9.73;7.93;;;;;;;10.08;63.24;99730.41;5044687;28;20325;-71
2023/12/16 03:02:05;;;;;;;8.43;7.50;;;;;;;10.01;62.93;99735.16;5041288;28;20306;-70
2023/12/16 03:04:31;;;;;;;11.70;8.80;;;;;;;10.08;63.56;99736.47;5030904;28;20195;-72
2023/12/16 03:06:56;;;;;;;10.43;8.60;;;;;;;10.16;63.33;99733.44;5036066;28;20231;-73
2023/12/16 03:09:21;;;;;;;10.77;8.50;;;;;;;10.20;63.39;99741.97;5036620;28;20228;-73
2023/12/16 03:11:49;;;;;;;9.43;8.43;;;;;;;10.18;63.07;99742.06;5044562;28;20553;-71
2023/12/16 03:14:16;;;;;;;11.60;9.03;;;;;;;10.16;63.07;99749.16;5022135;28;20204;-74
2023/12/16 03:16:41;;;;;;;9.50;8.10;;;;;;;10.19;63.04;99756.00;5035357;28;20487;-72
2023/12/16 03:19:07;;;;;;;9.83;7.47;;;;;;;10.22;62.94;99761.91;5045140;28;20511;-71
2023/12/16 03:21:32;;;;;;;8.67;7.10;;;;;;;10.19;63.24;99762.09;5048487;28;20576;-72
2023/12/16 03:23:58;;;;;;;7.83;7.00;;;;;;;10.23;63.35;99755.72;5043913;28;20274;-71
2023/12/16 03:26:23;;;;;;;8.43;7.53;;;;;;;10.20;62.84;99752.44;5040894;28;20202;-71
2023/12/16 03:28:48;;;;;;;9.13;8.00;;;;;;;10.07;63.09;99747.06;5035194;28;20233;-71
2023/12/16 03:31:14;;;;;;;12.43;8.67;;;;;;;10.08;63.20;99740.91;5043505;28;20277;-71
2023/12/16 03:33:39;;;;;;;8.13;7.20;;;;;;;10.15;63.38;99742.22;5045807;28;20184;-69
2023/12/16 03:36:08;;;;;;;10.50;7.37;;;;;;;10.20;62.97;99749.81;5048157;28;20276;-71
2023/12/16 03:38:33;;;;;;;11.83;6.70;;;;;;;10.14;62.55;99743.16;5040367;28;20205;-70
2023/12/16 03:40:59;;;;;;;8.20;7.10;;;;;;;10.20;62.55;99745.44;5032738;28;20470;-71
2023/12/16 03:43:24;;;;;;;7.10;6.40;;;;;;;10.18;62.54;99746.44;5031175;28;20701;-71
2023/12/16 03:45:50;;;;;;;7.50;6.43;;;;;;;10.17;62.96;99745.59;5038298;28;20625;-71
2023/12/16 03:48:15;;;;;;;9.57;7.53;;;;;;;10.22;62.93;99734.84;5035668;28;20195;-70
2023/12/16 03:50:41;;;;;;;7.70;6.90;;;;;;;10.15;63.14;99739.59;5035353;28;20294;-71
2023/12/16 03:53:06;;;;;;;11.80;7.17;;;;;;;10.19;62.97;99743.75;5035806;28;20238;-70
2023/12/16 03:55:31;;;;;;;6.83;6.10;;;;;;;10.12;62.93;99743.25;5048053;28;20191;-70
2023/12/16 03:57:57;;;;;;;8.20;7.27;;;;;;;10.13;63.05;99738.84;5039005;28;20932;-70
2023/12/16 04:00:22;;;;;;;7.80;6.95;;;;;;;10.09;63.25;99750.41;5035671;28;20202;-71
2023/12/16 04:02:48;;;;;;;9.37;7.10;;;;;;;10.15;63.19;99747.47;5041888;28;20878;-70
2023/12/16 04:05:13;;;;;;;8.67;7.20;;;;;;;10.17;63.74;99750.84;5034027;28;20308;-70
2023/12/16 04:07:38;;;;;;;8.00;6.13;;;;;;;10.19;63.20;99746.38;5032913;28;20266;-71
2023/12/16 04:10:04;;;;;;;7.40;6.60;;;;;;;10.14;63.04;99746.59;5029720;28;20191;-70
2023/12/16 04:12:30;;;;;;;7.80;6.70;;;;;;;10.15;63.20;99742.22;5038519;28;20207;-70
2023/12/16 04:14:55;;;;;;;7.60;6.60;;;;;;;10.17;63.21;99753.47;5029345;28;20484;-69
2023/12/16 04:17:21;;;;;;;7.70;6.90;;;;;;;10.20;63.14;99755.06;5029970;28;20199;-69
2023/12/16 04:19:51;;;;;;;8.33;7.10;;;;;;;9.94;63.77;99754.75;5035354;28;20215;-69
2023/12/16 04:22:17;;;;;;;10.80;6.93;;;;;;;9.82;64.03;99751.06;5045213;28;20258;-72
2023/12/16 04:24:42;;;;;;;10.97;7.00;;;;;;;9.88;64.15;99758.56;5043311;28;20926;-71
2023/12/16 04:27:08;;;;;;;8.40;7.30;;;;;;;9.95;63.76;99754.69;5044175;28;20441;-70
2023/12/16 04:29:33;;;;;;;9.33;6.67;;;;;;;10.03;63.52;99761.25;5037737;28;20199;-70
2023/12/16 04:31:59;;;;;;;9.10;7.20;;;;;;;10.08;63.79;99767.09;5037110;28;20239;-69
2023/12/16 04:34:24;;;;;;;9.93;7.30;;;;;;;10.00;63.33;99757.06;5045077;28;20730;-70
2023/12/16 04:36:49;;;;;;;7.77;6.80;;;;;;;10.07;63.81;99757.56;5045212;28;20194;-70
2023/12/16 04:39:15;;;;;;;9.30;7.50;;;;;;;10.11;63.53;99751.19;5044716;28;20233;-70
2023/12/16 04:41:40;;;;;;;9.43;7.10;;;;;;;10.06;63.29;99750.63;5041641;28;20336;-69
2023/12/16 04:44:06;;;;;;;10.53;7.07;;;;;;;10.11;63.32;99748.56;5021319;28;20785;-70
2023/12/16 04:46:31;;;;;;;7.90;6.43;;;;;;;10.08;63.39;99754.00;5030192;28;20195;-71
2023/12/16 04:48:57;;;;;;;7.23;6.40;;;;;;;10.10;63.39;99749.50;5033239;28;20202;-71
2023/12/16 04:51:22;;;;;;;7.80;6.80;;;;;;;10.10;63.23;99752.13;5018764;28;20230;-70
2023/12/16 04:53:48;;;;;;;7.03;6.30;;;;;;;10.13;63.50;99750.19;5019370;28;20191;-71
2023/12/16 04:56:13;;;;;;;7.60;6.40;;;;;;;10.17;63.18;99750.84;5044222;28;20202;-70
2023/12/16 04:58:39;;;;;;;7.73;6.13;;;;;;;10.19;63.03;99758.63;5033124;28;20282;-72
2023/12/16 05:01:04;;;;;;;8.50;6.47;;;;;;;10.17;62.83;99760.47;5028530;28;20215;-71
2023/12/16 05:03:31;;;;;;;8.93;6.17;;;;;;;10.21;62.51;99757.59;5039221;28;20226;-71
2023/12/16 05:05:57;;;;;;;7.27;6.17;;;;;;;10.15;62.57;99758.78;5035137;28;20195;-69
2023/12/16 05:08:22;;;;;;;8.40;6.47;;;;;;;9.97;63.23;99754.59;5037938;28;20839;-70
2023/12/16 05:10:48;;;;;;;7.67;6.20;;;;;;;9.93;64.08;99759.16;5036743;28;20226;-69
2023/12/16 05:13:14;;;;;;;8.77;5.70;;;;;;;10.10;63.49;99752.97;5034046;28;20242;-71
2023/12/16 05:15:40;;;;;;;11.50;6.40;;;;;;;10.13;63.22;99759.81;5045371;28;20260;-71
2023/12/16 05:18:06;;;;;;;7.47;6.03;;;;;;;10.20;62.65;99768.16;5037799;28;20450;-71
2023/12/16 05:20:32;;;;;;;7.23;5.90;;;;;;;10.22;62.43;99761.06;5033929;28;20213;-71
2023/12/16 05:22:59;;;;;;;6.90;5.20;;;;;;;10.26;62.26;99770.44;5030869;28;20215;-70
2023/12/16 05:25:27;;;;;;;7.50;6.17;;;;;;;10.26;61.90;99760.81;5032501;28;20425;-70
2023/12/16 05:27:52;;;;;;;7.80;6.40;;;;;;;10.14;62.20;99762.31;5030704;28;20431;-71
2023/12/16 05:30:18;;;;;;;7.70;6.90;;;;;;;10.15;62.48;99757.94;5029864;28;20962;-71
2023/12/16 05:32:43;;;;;;;11.37;6.07;;;;;;;10.11;62.89;99761.66;5021629;28;20747;-72
2023/12/16 05:35:09;;;;;;;8.57;6.83;;;;;;;10.13;63.13;99767.66;5037513;28;20191;-71
2023/12/16 05:37:34;;;;;;;7.97;7.17;;;;;;;10.09;63.09;99758.28;5038260;28;20735;-70
2023/12/16 05:39:59;;;;;;;5.30;4.80;;;;;;;10.07;61.88;99760.16;5039815;28;20329;-70
2023/12/16 05:42:25;;;;;;;5.70;5.07;;;;;;;10.07;60.83;99761.00;5029313;28;20301;-71
2023/12/16 05:44:50;;;;;;;6.77;4.90;;;;;;;10.01;60.96;99776.22;5016983;28;20196;-72
2023/12/16 05:47:16;;;;;;;6.00;5.27;;;;;;;10.07;60.13;99771.47;5035785;28;20669;-72
2023/12/16 05:49:41;;;;;;;5.80;5.20;;;;;;;10.01;59.83;99768.38;5035620;28;20191;-71
2023/12/16 05:52:06;;;;;;;5.90;4.73;;;;;;;10.06;59.92;99763.72;5035334;28;20214;-72
2023/12/16 05:54:32;;;;;;;5.97;5.00;;;;;;;10.11;59.88;99766.91;5032964;28;20279;-73
2023/12/16 05:56:58;;;;;;;5.77;5.17;;;;;;;10.08;60.29;99760.06;5035883;28;20198;-71
2023/12/16 05:59:24;;;;;;;6.10;5.50;;;;;;;10.09;59.38;99764.38;5031485;28;20231;-72
2023/12/16 06:01:49;;;;;;;6.93;5.57;;;;;;;10.01;60.32;99768.38;5035860;28;20283;-72
2023/12/16 06:04:15;;;;;;;7.10;5.57;;;;;;;10.07;60.53;99765.41;5029322;28;22067;-73
2023/12/16 06:06:41;;;;;;;8.97;5.23;;;;;;;10.07;60.31;99763.63;5036270;28;20223;-70
2023/12/16 06:09:07;;;;;;;8.20;6.47;;;;;;;10.03;60.58;99764.72;5041574;28;20290;-69
2023/12/16 06:11:32;;;;;;;6.47;5.53;;;;;;;9.91;60.36;99778.50;5035377;28;20533;-71
2023/12/16 06:13:58;;;;;;;7.13;5.63;;;;;;;9.91;60.08;99768.88;5026539;28;20576;-70
2023/12/16 06:16:23;;;;;;;9.13;5.93;;;;;;;9.82;60.09;99769.41;5033964;28;20223;-71
2023/12/16 06:18:49;;;;;;;6.67;5.43;;;;;;;9.76;60.67;99780.19;5041519;28;20198;-70
2023/12/16 06:21:14;;;;;;;10.73;6.07;;;;;;;9.80;60.55;99784.34;5033348;28;20215;-69
2023/12/16 06:23:40;;;;;;;7.27;5.77;;;;;;;9.87;60.66;99783.06;5028844;28;20196;-70
2023/12/16 06:26:05;;;;;;;7.73;5.20;;;;;;;9.78;60.38;99784.41;5040662;28;20202;-71
2023/12/16 06:28:31;;;;;;;5.90;5.30;;;;;;;9.80;59.93;99790.41;5032682;28;20575;-71
2023/12/16 06:30:56;;;;;;;6.33;4.70;;;;;;;9.86;59.65;99788.41;5033007;28;20188;-71
2023/12/16 06:33:25;;;;;;;7.30;5.60;;;;;;;9.92;60.02;99788.06;5042448;28;20296;-71
2023/12/16 06:35:50;;;;;;;6.70;5.40;;;;;;;9.93;60.00;99792.38;5044199;28;20559;-72
2023/12/16 06:38:16;;;;;;;8.27;5.20;;;;;;;9.94;59.71;99792.31;5032374;28;20426;-71
2023/12/16 06:40:41;;;;;;;5.63;5.13;;;;;;;9.94;59.78;99802.78;5030765;28;21062;-71
2023/12/16 06:43:07;;;;;;;6.40;5.80;;;;;;;9.82;59.89;99804.28;5038097;28;20702;-70
2023/12/16 06:45:33;;;;;;;6.90;5.77;;;;;;;9.86;60.04;99804.97;5035528;28;20214;-70
2023/12/16 06:47:59;;;;;;;6.73;5.60;;;;;;;9.89;59.85;99793.47;5039585;28;20195;-70
2023/12/16 06:50:24;;;;;;;6.00;5.33;;;;;;;9.93;59.33;99800.22;5044382;28;20673;-69
2023/12/16 06:52:49;;;;;;;10.00;6.67;;;;;;;9.96;59.33;99795.66;5019481;28;20981;-71
2023/12/16 06:55:15;;;;;;;20.17;12.00;;;;;;;9.92;60.14;99799.41;5042186;28;20704;-71
2023/12/16 06:57:41;;;;;;;14.47;9.73;;;;;;;9.89;60.70;99804.78;5031901;28;20195;-70
2023/12/16 07:00:07;;;;;;;14.40;10.07;;;;;;;9.87;61.11;99811.88;5027953;28;20249;-70
2023/12/16 07:02:32;;;;;;;11.60;8.10;;;;;;;9.87;61.02;99797.97;5035765;28;20311;-70
2023/12/16 07:04:58;;;;;;;10.63;7.40;;;;;;;9.89;61.41;99799.56;5041781;28;20509;-70
2023/12/16 07:07:25;;;;;;;8.17;5.90;;;;;;;9.94;61.09;99801.91;5034581;28;20187;-71
2023/12/16 07:09:50;;;;;;;9.40;6.33;;;;;;;9.91;60.73;99804.69;5044520;28;20609;-70
2023/12/16 07:12:16;;;;;;;7.73;6.03;;;;;;;9.90;60.55;99808.25;5032315;28;20537;-70
2023/12/16 07:14:43;;;;;;;7.23;6.13;;;;;;;9.90;60.28;99811.72;5043250;28;20695;-69
2023/12/16 07:17:08;;;;;;;8.90;6.47;;;;;;;9.87;60.49;99811.88;5031718;28;20326;-70
2023/12/16 07:19:34;;;;;;;11.40;6.90;;;;;;;9.88;61.01;99812.75;5044790;28;21209;-69
2023/12/16 07:22:01;;;;;;;10.60;6.27;;;;;;;10.03;62.24;99821.53;5034522;28;21073;-70
2023/12/16 07:24:26;;;;;;;8.17;6.27;;;;;;;10.19;63.17;99809.28;5042009;28;20425;-68
2023/12/16 07:26:51;;;;;;;8.80;6.50;;;;;;;10.36;63.67;99810.06;5043666;28;20431;-70
2023/12/16 07:29:17;;;;;;;10.20;8.07;;;;;;;10.46;63.74;99806.03;5044591;28;20279;-70
2023/12/16 07:31:49;;;;;;;12.13;8.00;;;;;;;10.58;63.85;99814.97;5040376;28;20218;-70
2023/12/16 07:34:14;;;;;;;14.90;9.30;;;;;;;10.69;63.53;99820.44;5030681;28;20267;-71
2023/12/16 07:36:40;;;;;;;10.63;7.57;;;;;;;10.77;62.95;99825.25;5036756;28;20525;-70
2023/12/16 07:39:05;;;;;;;45.43;25.63;;;;;;;10.83;62.53;99810.91;5020480;28;20219;-72
2023/12/16 07:41:31;;;;;;;37.83;21.33;;;;;;;10.90;62.05;99814.84;5029717;28;20208;-70
2023/12/16 07:43:56;;;;;;;19.23;11.97;;;;;;;10.95;61.73;99810.19;5037257;28;20191;-71
2023/12/16 07:46:21;;;;;;;15.53;9.63;;;;;;;10.98;61.41;99815.28;5029384;28;20220;-70
2023/12/16 07:48:47;;;;;;;10.30;7.53;;;;;;;11.01;60.76;99817.72;5037801;28;20201;-70
2023/12/16 07:51:16;;;;;;;9.70;7.43;;;;;;;10.98;60.76;99820.53;5019994;28;20181;-69
2023/12/16 07:53:47;;;;;;;8.50;6.73;;;;;;;10.98;60.32;99817.91;5026653;28;20290;-73
2023/12/16 07:56:20;;;;;;;7.73;6.43;;;;;;;11.01;60.07;99824.72;5024767;28;20785;-70
2023/12/16 07:58:45;;;;;;;8.57;6.27;;;;;;;11.03;59.35;99822.88;5025503;28;20433;-70
2023/12/16 08:01:14;;;;;;;15.70;7.10;;;;;;;11.02;59.13;99826.41;5034649;28;20457;-71
2023/12/16 08:03:41;;;;;;;11.80;6.90;;;;;;;11.06;59.43;99823.53;5030345;28;20195;-70
2023/12/16 08:06:08;;;;;;;8.83;6.50;;;;;;;11.06;58.81;99831.41;5031541;28;20445;-72
2023/12/16 08:08:37;;;;;;;7.90;5.77;;;;;;;11.06;58.19;99843.69;5030672;28;20430;-70
2023/12/16 08:11:04;;;;;;;12.53;6.83;;;;;;;10.90;57.39;99851.59;5031270;28;20788;-69
2023/12/16 08:13:29;;;;;;;13.70;8.17;;;;;;;10.93;57.35;99854.03;5044869;28;20458;-70
2023/12/16 08:15:55;;;;;;;15.60;7.90;;;;;;;10.89;56.87;99856.00;5037587;28;20438;-70
2023/12/16 08:18:20;;;;;;;17.87;8.00;;;;;;;10.88;56.80;99859.56;5015936;28;20338;-69
2023/12/16 08:20:45;;;;;;;11.97;7.33;;;;;;;10.90;57.13;99856.84;5037459;28;20222;-70
2023/12/16 08:23:11;;;;;;;11.60;8.00;;;;;;;10.86;56.97;99863.22;5021211;28;20311;-70
2023/12/16 08:25:37;;;;;;;18.97;9.27;;;;;;;10.83;56.97;99864.25;5031345;28;20680;-71
2023/12/16 08:28:02;;;;;;;23.10;9.80;;;;;;;10.77;57.51;99863.75;5023014;28;20197;-70
2023/12/16 08:30:28;;;;;;;12.70;7.13;;;;;;;10.73;57.17;99874.44;5031528;28;20187;-70
2023/12/16 08:32:53;;;;;;;9.43;6.07;;;;;;;10.70;57.42;99865.91;5028432;28;20608;-70
2023/12/16 08:35:19;;;;;;;9.70;6.00;;;;;;;10.71;57.47;99859.72;5013655;28;20192;-70
2023/12/16 08:37:44;;;;;;;8.60;3.93;;;;;;;11.04;63.85;99870.00;5023423;28;20648;-69
2023/12/16 08:40:10;;;;;;;11.53;5.13;;;;;;;11.49;64.87;99866.53;5027945;28;20250;-73
2023/12/16 08:42:36;;;;;;;14.43;7.77;;;;;;;11.64;60.71;99877.88;5028106;28;20215;-72
2023/12/16 08:45:02;;;;;;;18.70;7.70;;;;;;;11.64;57.83;99870.00;5021475;28;20481;-71
2023/12/16 08:47:27;;;;;;;12.50;7.10;;;;;;;11.55;56.15;99875.81;5032817;28;20196;-72
2023/12/16 08:49:53;;;;;;;11.90;6.90;;;;;;;11.29;55.43;99873.81;5023316;28;20489;-72
2023/12/16 08:52:18;;;;;;;15.17;7.10;;;;;;;11.19;55.06;99876.16;5017463;28;20715;-71
2023/12/16 08:54:44;;;;;;;12.10;6.40;;;;;;;11.14;55.66;99891.31;5030873;28;20199;-71
2023/12/16 08:57:10;;;;;;;10.43;6.37;;;;;;;11.14;55.62;99893.94;5016992;28;20572;-70
2023/12/16 08:59:35;;;;;;;10.50;6.70;;;;;;;11.14;55.90;99893.13;5030518;28;20197;-69
2023/12/16 09:02:02;;;;;;;8.23;6.23;;;;;;;11.14;55.65;99898.38;5035751;28;20245;-71
2023/12/16 09:04:27;;;;;;;7.30;6.17;;;;;;;10.89;55.27;99899.78;5040219;28;20229;-75
2023/12/16 09:06:54;;;;;;;7.07;5.90;;;;;;;10.81;55.73;99897.59;5040519;28;20437;-70
2023/12/16 09:09:19;;;;;;;9.20;5.63;;;;;;;10.83;55.96;99900.13;5044053;28;20651;-72
2023/12/16 09:11:45;;;;;;;13.93;6.30;;;;;;;10.76;55.84;99897.00;5033538;28;20445;-73
2023/12/16 09:14:10;;;;;;;7.43;5.50;;;;;;;10.80;55.75;99901.16;5037311;28;20274;-70
2023/12/16 09:16:36;;;;;;;7.33;5.63;;;;;;;10.81;55.83;99902.00;5035784;28;20238;-70
2023/12/16 09:19:01;;;;;;;8.27;5.80;;;;;;;10.75;56.01;99908.44;5034178;28;20187;-72
2023/12/16 09:21:27;;;;;;;7.70;5.30;;;;;;;10.66;56.38;99912.41;5024926;28;20357;-69
2023/12/16 09:23:52;;;;;;;6.53;5.20;;;;;;;10.71;56.69;99923.50;5035076;28;20191;-70
2023/12/16 09:26:18;;;;;;;7.43;6.10;;;;;;;10.82;56.84;99908.94;5029436;28;20216;-71
2023/12/16 09:28:43;;;;;;;8.23;5.57;;;;;;;10.86;56.55;99916.53;5014489;28;20726;-71
2023/12/16 09:31:09;;;;;;;25.43;14.03;;;;;;;10.88;57.15;99919.91;5029291;28;20635;-70
2023/12/16 09:33:36;;;;;;;21.30;15.30;;;;;;;10.87;57.44;99918.22;5017514;28;20255;-71
2023/12/16 09:36:02;;;;;;;21.50;14.20;;;;;;;10.86;57.46;99916.53;5021926;28;20543;-71
2023/12/16 09:38:27;;;;;;;12.80;10.23;;;;;;;10.73;57.92;99926.03;5019121;28;20433;-71
2023/12/16 09:40:52;;;;;;;10.33;7.13;;;;;;;10.72;57.75;99930.44;5025692;28;20668;-69
2023/12/16 09:43:19;;;;;;;10.50;7.80;;;;;;;10.74;58.35;99925.97;5026940;28;20241;-72
2023/12/16 09:45:46;;;;;;;10.80;7.27;;;;;;;10.78;58.29;99916.13;5025465;28;20205;-72
2023/12/16 09:48:14;;;;;;;9.60;8.10;;;;;;;10.70;58.25;99931.47;5025257;28;20435;-70
2023/12/16 09:50:40;;;;;;;9.83;7.07;;;;;;;10.61;58.09;99927.59;5025360;28;20935;-71
2023/12/16 09:53:06;;;;;;;9.50;6.90;;;;;;;10.57;58.39;99932.16;5037872;28;20453;-71
2023/12/16 09:55:31;;;;;;;9.10;6.20;;;;;;;10.64;57.87;99931.81;5030163;28;20440;-72
2023/12/16 09:57:58;;;;;;;7.43;5.33;;;;;;;10.66;57.50;99925.53;5015484;28;20215;-71
2023/12/16 10:00:28;;;;;;;10.73;6.00;;;;;;;10.65;57.30;99928.25;5030605;28;20733;-70
2023/12/16 10:02:56;;;;;;;7.60;5.37;;;;;;;10.75;57.02;99924.19;5027798;28;20493;-69
2023/12/16 10:05:25;;;;;;;8.37;5.20;;;;;;;10.77;57.04;99922.31;5023719;28;20464;-72
2023/12/16 10:07:56;;;;;;;6.60;5.50;;;;;;;10.82;57.12;99922.91;5025548;28;20450;-70
2023/12/16 10:10:22;;;;;;;7.73;5.80;;;;;;;10.97;57.47;99915.06;5019552;28;20432;-71
2023/12/16 10:12:47;;;;;;;7.00;5.33;;;;;;;11.06;56.99;99917.19;5024246;28;21033;-70
2023/12/16 10:15:27;;;;;;;8.50;5.60;;;;;;;11.10;58.21;99917.84;5017592;28;20195;-69
2023/12/16 10:17:53;;;;;;;6.97;5.57;;;;;;;11.17;56.55;99914.78;5024213;28;20245;-71
2023/12/16 10:20:18;;;;;;;7.43;5.77;;;;;;;11.20;56.04;99908.50;5021111;28;20514;-70
2023/12/16 10:22:44;;;;;;;10.33;6.40;;;;;;;11.22;56.42;99902.19;5036474;28;20294;-71
2023/12/16 10:25:11;;;;;;;7.60;6.00;;;;;;;11.20;56.39;99898.84;5032309;28;20191;-72
2023/12/16 10:27:36;;;;;;;9.63;5.90;;;;;;;11.11;56.50;99909.88;5025880;28;20226;-74
2023/12/16 10:30:03;;;;;;;7.73;6.37;;;;;;;11.10;56.27;99908.16;5025803;28;20442;-72
2023/12/16 10:32:29;;;;;;;10.17;5.90;;;;;;;11.11;56.06;99909.03;5025872;28;20331;-73
2023/12/16 10:34:55;;;;;;;7.90;6.00;;;;;;;11.15;56.45;99900.06;5034167;28;20470;-70
2023/12/16 10:37:21;;;;;;;9.07;6.67;;;;;;;11.19;56.40;99899.78;5023907;28;20306;-72
2023/12/16 10:39:47;;;;;;;7.73;6.00;;;;;;;11.18;55.73;99897.22;5028316;28;20520;-70
2023/12/16 10:42:12;;;;;;;6.87;5.93;;;;;;;11.04;56.12;99898.03;5017591;28;20719;-71
2023/12/16 10:44:37;;;;;;;9.73;5.60;;;;;;;11.12;56.60;99901.06;5029420;28;20222;-70
2023/12/16 10:47:05;;;;;;;8.37;5.63;;;;;;;11.15;56.43;99885.13;5026171;28;20646;-70
2023/12/16 10:49:31;;;;;;;8.10;5.80;;;;;;;11.11;55.94;99893.28;5038190;28;20203;-72
2023/12/16 10:52:06;;;;;;;8.43;5.90;;;;;;;11.16;56.03;99878.94;5035077;28;20451;-71
2023/12/16 10:55:00;;;;;;;10.00;5.90;;;;;;;11.20;56.21;99875.22;5031132;28;20445;-70
2023/12/16 10:57:43;;;;;;;6.90;5.63;;;;;;;11.24;56.39;99868.00;5012212;28;20978;-72
2023/12/16 11:00:12;;;;;;;6.20;5.60;;;;;;;11.27;56.17;99865.19;5022684;28;20440;-71
2023/12/16 11:02:55;;;;;;;9.20;6.20;;;;;;;11.31;55.74;99873.72;5033246;28;20548;-70
2023/12/16 11:05:32;;;;;;;9.50;6.90;;;;;;;11.33;55.53;99871.88;5025713;28;20442;-72
2023/12/16 11:08:01;;;;;;;11.10;6.43;;;;;;;11.36;55.20;99869.03;5017457;28;20433;-71
2023/12/16 11:10:28;;;;;;;16.60;9.77;;;;;;;11.35;55.98;99864.72;5021401;28;20433;-71
2023/12/16 11:12:55;;;;;;;17.90;11.30;;;;;;;11.38;56.63;99869.78;5018326;28;20957;-72
2023/12/16 11:15:20;;;;;;;11.50;8.70;;;;;;;11.53;56.08;99868.00;5012307;28;20447;-69
2023/12/16 11:17:55;;;;;;;16.60;10.83;;;;;;;11.58;55.80;99873.00;5033083;28;20207;-70
2023/12/16 11:20:27;;;;;;;10.07;7.10;;;;;;;11.63;55.25;99870.91;5016618;28;20210;-69
2023/12/16 11:22:53;;;;;;;12.13;8.53;;;;;;;11.62;55.62;99866.59;5030421;28;20465;-72
2023/12/16 11:25:20;;;;;;;8.97;6.87;;;;;;;11.66;55.12;99868.94;5023509;28;20462;-70
2023/12/16 11:27:49;;;;;;;13.97;11.20;;;;;;;11.67;55.03;99867.19;5034377;28;20184;-73